Time;durP1;ratioP1;P1;durP2;ratioP2;P2;SDS_P1;SDS_P2;PMS_P1;PMS_P2;Temp;Humidity;BMP_temperature;BMP_pressure;BME280_temperature;BME280_humidity;BME280_pressure;Samples;Min_cycle;Max_cycle;Signal;HPM_P1;HPM_P2
2024/01/16 00:00:54;;;;;;;5.20;2.50;;;;;;;-2.42;87.52;94865.61;109043;1274;22531;-84
2024/01/16 00:03:45;;;;;;;6.50;3.10;;;;;;;-2.43;87.57;94872.94;109017;1274;22630;-84
2024/01/16 00:06:18;;;;;;;4.80;2.60;;;;;;;-2.39;87.43;94870.45;109011;1272;22623;-84
2024/01/16 00:08:49;;;;;;;4.60;2.90;;;;;;;-2.37;87.18;94874.63;109077;1266;22518;-85
2024/01/16 00:11:20;;;;;;;4.10;2.60;;;;;;;-2.36;87.12;94879.52;109036;1274;22525;-84
2024/01/16 00:13:53;;;;;;;6.40;4.20;;;;;;;-2.34;87.25;94877.88;109014;1270;22546;-84
2024/01/16 00:16:27;;;;;;;5.80;2.80;;;;;;;-2.30;87.01;94888.98;109007;1272;22632;-84
2024/01/16 00:18:58;;;;;;;3.60;2.50;;;;;;;-2.27;87.24;94894.88;109026;1266;22531;-84
2024/01/16 00:21:29;;;;;;;4.10;2.60;;;;;;;-2.26;86.94;94899.45;108986;1273;23289;-84
2024/01/16 00:24:02;;;;;;;4.30;2.50;;;;;;;-2.27;87.09;94907.50;109007;1274;23230;-84
2024/01/16 00:26:33;;;;;;;4.00;2.70;;;;;;;-2.29;87.26;94911.16;109040;1267;22514;-84
2024/01/16 00:29:05;;;;;;;5.00;3.10;;;;;;;-2.40;87.87;94911.59;109023;1270;23526;-85
2024/01/16 00:31:36;;;;;;;4.00;2.50;;;;;;;-2.48;88.58;94920.66;109040;1274;22539;-84
2024/01/16 00:34:09;;;;;;;2.80;1.90;;;;;;;-2.50;89.34;94915.34;109097;1274;22610;-84
2024/01/16 00:36:40;;;;;;;4.00;2.30;;;;;;;-2.52;89.27;94925.80;109064;1274;22562;-85
2024/01/16 00:39:11;;;;;;;4.60;3.00;;;;;;;-2.51;89.66;94925.92;109072;1266;25808;-84
2024/01/16 00:41:42;;;;;;;4.20;2.60;;;;;;;-2.48;89.71;94922.11;109039;1274;22526;-85
2024/01/16 00:44:14;;;;;;;4.60;2.20;;;;;;;-2.48;89.64;94927.51;109043;1272;24211;-84
2024/01/16 00:46:50;;;;;;;3.60;2.10;;;;;;;-2.50;89.50;94937.04;109067;1271;22538;-85
2024/01/16 00:49:23;;;;;;;4.10;2.20;;;;;;;-2.51;89.51;94947.09;109083;1274;22569;-85
2024/01/16 00:51:54;;;;;;;4.50;2.50;;;;;;;-2.52;89.30;94950.65;108978;1274;103901;-85
2024/01/16 00:54:27;;;;;;;3.80;2.30;;;;;;;-2.53;89.27;94954.69;109033;1274;22542;-84
2024/01/16 00:57:01;;;;;;;4.70;3.00;;;;;;;-2.53;89.38;94952.02;109001;1274;22647;-85
2024/01/16 00:59:32;;;;;;;1.90;1.50;;;;;;;-2.56;89.45;94955.61;109058;1272;23927;-85
2024/01/16 01:02:05;;;;;;;3.80;2.80;;;;;;;-2.57;89.57;94959.48;109016;1266;22539;-85
2024/01/16 01:04:41;;;;;;;6.20;2.80;;;;;;;-2.57;89.48;94960.83;109052;1274;24332;-85
2024/01/16 01:07:15;;;;;;;4.10;2.30;;;;;;;-2.58;89.57;94961.50;109020;1274;22686;-84
2024/01/16 01:09:48;;;;;;;3.20;2.10;;;;;;;-2.57;89.86;94964.15;109128;1274;22580;-85
2024/01/16 01:12:22;;;;;;;4.10;2.40;;;;;;;-2.57;89.93;94979.40;109031;1267;24349;-84
2024/01/16 01:15:11;;;;;;;5.30;3.20;;;;;;;-2.55;90.28;94980.52;109054;1274;22528;-84
2024/01/16 01:17:43;;;;;;;8.90;2.90;;;;;;;-2.56;90.02;94986.00;109037;1274;22517;-84
2024/01/16 01:20:17;;;;;;;5.90;2.50;;;;;;;-2.56;90.06;94990.98;109028;1271;23981;-84
2024/01/16 01:22:48;;;;;;;4.60;2.60;;;;;;;-2.54;90.00;94997.73;109002;1274;22691;-84
2024/01/16 01:25:25;;;;;;;5.50;2.80;;;;;;;-2.53;89.95;94996.19;109011;1273;22661;-84
2024/01/16 01:27:57;;;;;;;4.70;2.50;;;;;;;-2.54;90.34;94994.20;109062;1274;22577;-85
2024/01/16 01:30:28;;;;;;;5.50;2.80;;;;;;;-2.54;90.74;95002.59;108999;1274;22561;-85
2024/01/16 01:32:59;;;;;;;5.80;3.00;;;;;;;-2.57;90.63;95009.27;109009;1274;23896;-85
2024/01/16 01:35:32;;;;;;;4.90;2.30;;;;;;;-2.59;90.74;95019.73;109079;1273;22549;-85
2024/01/16 01:38:03;;;;;;;3.80;2.40;;;;;;;-2.59;90.91;95018.18;109017;1259;22551;-84
2024/01/16 01:43:43;;;;;;;4.40;2.20;;;;;;;-2.60;90.75;95022.37;108747;1277;22571;-85
2024/01/16 01:46:18;;;;;;;4.00;2.50;;;;;;;-2.60;91.14;95016.66;108729;1273;22517;-85
2024/01/16 01:48:50;;;;;;;4.00;2.50;;;;;;;-2.59;91.26;95014.19;108731;1278;22573;-85
2024/01/16 01:51:24;;;;;;;4.00;2.80;;;;;;;-2.57;91.27;95015.71;108719;1278;22710;-85
2024/01/16 01:53:58;;;;;;;4.30;2.30;;;;;;;-2.57;91.48;95019.62;108724;1278;22538;-85
2024/01/16 01:56:32;;;;;;;5.10;2.80;;;;;;;-2.58;91.28;95014.73;108694;1278;25522;-85
2024/01/16 01:59:04;;;;;;;3.10;2.20;;;;;;;-2.59;91.40;95019.90;108735;1270;22536;-85
2024/01/16 02:01:39;;;;;;;4.80;2.60;;;;;;;-2.59;91.52;95018.08;108700;1278;22562;-85
2024/01/16 02:04:15;;;;;;;4.60;2.60;;;;;;;-2.61;91.91;95020.85;108727;1272;23184;-85
2024/01/16 02:06:46;;;;;;;4.00;2.40;;;;;;;-2.63;91.82;95024.51;108726;1278;22534;-85
2024/01/16 02:09:17;;;;;;;3.10;2.10;;;;;;;-2.62;91.79;95023.37;108704;1278;24153;-84
2024/01/16 02:11:48;;;;;;;3.60;2.60;;;;;;;-2.63;91.72;95024.52;108735;1278;22583;-84
2024/01/16 02:14:19;;;;;;;3.90;2.50;;;;;;;-2.62;91.83;95028.77;108745;1277;22540;-84
2024/01/16 02:16:52;;;;;;;5.00;2.50;;;;;;;-2.60;91.81;95027.35;108714;1277;22541;-84
2024/01/16 02:19:25;;;;;;;5.10;2.30;;;;;;;-2.58;92.25;95027.17;108713;1277;22534;-85
2024/01/16 02:22:00;;;;;;;4.40;2.70;;;;;;;-2.56;91.90;95035.81;108719;1275;22543;-84
2024/01/16 02:24:38;;;;;;;4.70;2.00;;;;;;;-2.59;92.02;95034.27;108748;1278;24404;-84
2024/01/16 02:27:13;;;;;;;2.60;1.70;;;;;;;-2.60;92.06;95039.33;108740;1273;22528;-84
2024/01/16 02:29:47;;;;;;;4.00;2.60;;;;;;;-2.60;92.23;95049.55;109039;1274;22633;-84
2024/01/16 02:32:20;;;;;;;3.00;1.90;;;;;;;-2.59;92.20;95051.03;109066;1274;22551;-84
2024/01/16 02:34:56;;;;;;;3.70;2.40;;;;;;;-2.58;92.26;95040.52;109045;1273;22535;-84
2024/01/16 02:37:27;;;;;;;3.40;2.00;;;;;;;-2.58;92.05;95044.04;109082;1273;22534;-84
2024/01/16 02:39:58;;;;;;;3.20;2.10;;;;;;;-2.60;91.98;95045.77;109047;1273;24773;-84
2024/01/16 02:42:31;;;;;;;6.10;2.70;;;;;;;-2.63;92.09;95046.30;109048;1273;22933;-84
2024/01/16 02:45:01;;;;;;;3.20;1.70;;;;;;;-2.64;91.78;95050.69;109027;1269;22560;-84
2024/01/16 02:47:34;;;;;;;5.30;2.70;;;;;;;-2.59;92.03;95055.80;109170;1266;22542;-84
2024/01/16 02:50:13;;;;;;;2.60;1.90;;;;;;;-2.52;91.85;95054.01;109028;1274;22633;-84
2024/01/16 02:52:44;;;;;;;3.90;2.30;;;;;;;-2.49;91.90;95056.54;109037;1274;23394;-84
2024/01/16 02:55:15;;;;;;;3.30;2.30;;;;;;;-2.49;91.92;95061.98;109019;1273;22532;-85
2024/01/16 02:57:49;;;;;;;3.70;2.40;;;;;;;-2.46;91.75;95058.67;109022;1274;23015;-85
2024/01/16 03:00:25;;;;;;;4.40;2.20;;;;;;;-2.44;91.57;95061.14;108617;1267;24340;-85
2024/01/16 03:02:56;;;;;;;2.40;2.00;;;;;;;-2.45;91.29;95067.35;109063;1274;22519;-85
2024/01/16 03:05:27;;;;;;;3.50;2.30;;;;;;;-2.44;91.25;95061.34;109138;1267;22528;-85
2024/01/16 03:08:01;;;;;;;5.30;2.50;;;;;;;-2.42;91.03;95060.34;109137;1271;22587;-86
2024/01/16 03:10:32;;;;;;;3.80;2.20;;;;;;;-2.38;91.05;95063.67;109022;1274;24340;-85
2024/01/16 03:13:06;;;;;;;3.30;2.30;;;;;;;-2.36;90.79;95069.21;109120;1267;22637;-84
2024/01/16 03:15:40;;;;;;;3.80;2.30;;;;;;;-2.35;90.55;95069.48;109112;1273;23278;-84
2024/01/16 03:18:12;;;;;;;4.00;2.50;;;;;;;-2.36;90.28;95073.73;109075;1274;25543;-84
2024/01/16 03:20:42;;;;;;;3.20;2.00;;;;;;;-2.38;90.18;95075.57;108609;1251;22524;-84
2024/01/16 03:23:18;;;;;;;3.10;2.30;;;;;;;-2.38;90.03;95079.09;108639;1274;22547;-84
2024/01/16 03:25:51;;;;;;;2.90;1.90;;;;;;;-2.36;89.82;95073.37;108999;1266;22539;-84
2024/01/16 03:28:29;;;;;;;4.20;2.10;;;;;;;-2.35;89.60;95074.73;109092;1270;22585;-84
2024/01/16 03:31:00;;;;;;;4.30;2.20;;;;;;;-2.34;89.44;95075.52;109009;1274;22555;-84
2024/01/16 03:33:35;;;;;;;4.30;2.20;;;;;;;-2.35;89.31;95072.08;109025;1274;22557;-84
2024/01/16 03:36:12;;;;;;;4.20;2.20;;;;;;;-2.37;89.07;95076.84;109012;1274;22548;-84
2024/01/16 03:38:49;;;;;;;2.60;1.50;;;;;;;-2.36;89.05;95079.70;109014;1273;25386;-84
2024/01/16 03:41:22;;;;;;;4.30;2.10;;;;;;;-2.37;88.88;95078.02;109027;1274;22525;-84
2024/01/16 03:43:56;;;;;;;5.10;2.20;;;;;;;-2.37;88.94;95085.60;109014;1274;22528;-83
2024/01/16 03:46:29;;;;;;;3.20;1.80;;;;;;;-2.34;88.97;95085.14;109053;1273;23260;-84
2024/01/16 03:49:00;;;;;;;4.00;1.90;;;;;;;-2.34;88.88;95093.95;109050;1274;22527;-84
2024/01/16 03:51:32;;;;;;;2.90;2.10;;;;;;;-2.32;88.76;95092.27;109065;1274;25141;-84
2024/01/16 03:54:04;;;;;;;3.20;1.90;;;;;;;-2.30;88.71;95092.91;109083;1274;22966;-84
2024/01/16 03:56:37;;;;;;;3.50;1.60;;;;;;;-2.30;88.71;95093.17;109070;1273;22576;-84
2024/01/16 03:59:08;;;;;;;3.40;1.80;;;;;;;-2.30;88.35;95094.84;108996;1270;22529;-84
2024/01/16 04:01:40;;;;;;;2.60;1.70;;;;;;;-2.28;88.46;95095.73;109046;1274;25517;-84
2024/01/16 04:04:17;;;;;;;2.50;1.90;;;;;;;-2.31;88.26;95101.25;108991;1273;24368;-84
2024/01/16 04:06:50;;;;;;;2.60;1.70;;;;;;;-2.31;88.22;95106.86;109057;1271;26570;-84
2024/01/16 04:09:23;;;;;;;4.30;2.10;;;;;;;-2.29;88.15;95108.65;109034;1274;22528;-84
2024/01/16 04:11:56;;;;;;;3.40;2.40;;;;;;;-2.26;88.23;95108.30;109042;1274;22528;-84
2024/01/16 04:14:32;;;;;;;2.90;1.90;;;;;;;-2.23;88.00;95109.60;109038;1274;22539;-84
2024/01/16 04:17:05;;;;;;;2.70;1.70;;;;;;;-2.21;87.97;95111.35;109046;1274;25281;-84
2024/01/16 04:19:36;;;;;;;2.10;1.60;;;;;;;-2.20;87.97;95109.08;109018;1274;22541;-84
2024/01/16 04:22:07;;;;;;;3.20;1.80;;;;;;;-2.17;87.88;95114.01;109022;1267;22558;-83
2024/01/16 04:24:41;;;;;;;2.90;1.80;;;;;;;-2.13;87.84;95107.52;109017;1269;25369;-84
2024/01/16 04:27:16;;;;;;;1.80;1.30;;;;;;;-2.11;87.57;95112.75;109067;1274;22512;-83
2024/01/16 04:29:49;;;;;;;2.80;1.70;;;;;;;-2.12;87.23;95111.16;109033;1274;23551;-84
2024/01/16 04:32:24;;;;;;;2.40;1.50;;;;;;;-2.12;87.17;95106.65;109037;1274;23853;-84
2024/01/16 04:34:56;;;;;;;2.60;1.20;;;;;;;-2.10;87.32;95105.82;109029;1267;22538;-83
2024/01/16 04:37:27;;;;;;;3.30;2.30;;;;;;;-2.10;87.14;95111.53;109029;1274;22532;-83
2024/01/16 04:39:59;;;;;;;2.70;1.80;;;;;;;-2.10;87.12;95111.63;108968;1274;24375;-83
2024/01/16 04:42:30;;;;;;;3.00;1.90;;;;;;;-2.12;86.82;95111.89;108984;1273;22525;-83
2024/01/16 04:45:02;;;;;;;2.80;1.60;;;;;;;-2.14;86.94;95114.25;108985;1267;22534;-83
2024/01/16 04:47:33;;;;;;;2.30;1.60;;;;;;;-2.15;86.98;95118.81;109007;1274;22527;-83
2024/01/16 04:50:07;;;;;;;2.20;1.40;;;;;;;-2.15;87.38;95119.59;109024;1262;22554;-83
2024/01/16 04:52:38;;;;;;;3.30;2.10;;;;;;;-2.19;87.52;95121.65;109043;1274;24317;-83
2024/01/16 04:55:10;;;;;;;3.20;1.60;;;;;;;-2.21;87.83;95125.73;109011;1274;25245;-83
2024/01/16 04:57:43;;;;;;;3.20;2.10;;;;;;;-2.22;87.71;95120.99;109074;1267;22567;-83
2024/01/16 05:00:18;;;;;;;2.00;1.40;;;;;;;-2.22;87.69;95127.48;109032;1267;26046;-83
2024/01/16 05:02:51;;;;;;;2.40;2.20;;;;;;;-2.25;87.97;95138.06;109011;1273;22542;-83
2024/01/16 05:05:22;;;;;;;4.60;2.30;;;;;;;-2.31;88.77;95139.52;109044;1272;22532;-84
2024/01/16 05:07:53;;;;;;;3.90;2.50;;;;;;;-2.37;89.57;95142.38;109083;1274;22569;-84
2024/01/16 05:10:29;;;;;;;4.20;2.60;;;;;;;-2.40;89.35;95150.20;108995;1274;22549;-84
2024/01/16 05:13:00;;;;;;;3.50;2.30;;;;;;;-2.41;89.64;95147.27;109024;1270;22534;-82
2024/01/16 05:15:31;;;;;;;2.60;2.10;;;;;;;-2.42;89.73;95152.04;109098;1273;22662;-82
2024/01/16 05:18:04;;;;;;;2.60;1.50;;;;;;;-2.40;90.00;95156.59;108999;1274;25421;-82
2024/01/16 05:20:35;;;;;;;2.90;1.80;;;;;;;-2.38;90.11;95153.88;109028;1273;25335;-82
2024/01/16 05:23:07;;;;;;;2.70;1.90;;;;;;;-2.34;90.53;95153.38;109016;1273;23250;-82
2024/01/16 05:25:40;;;;;;;1.60;1.50;;;;;;;-2.32;90.68;95160.21;108981;1274;22599;-83
2024/01/16 05:28:11;;;;;;;3.40;2.10;;;;;;;-2.31;90.40;95167.59;109090;1271;26467;-83
2024/01/16 05:30:43;;;;;;;4.90;2.40;;;;;;;-2.29;90.45;95174.63;109060;1270;22512;-84
2024/01/16 05:33:14;;;;;;;2.80;2.00;;;;;;;-2.28;90.48;95177.50;109041;1274;22543;-83
2024/01/16 05:35:45;;;;;;;3.00;1.90;;;;;;;-2.23;90.75;95178.23;109041;1274;22559;-83
2024/01/16 05:38:22;;;;;;;3.00;2.00;;;;;;;-2.18;90.40;95189.63;109141;1273;22572;-84
2024/01/16 05:40:52;;;;;;;3.50;2.10;;;;;;;-2.18;90.33;95201.89;109076;1267;22633;-84
2024/01/16 05:43:24;;;;;;;3.40;1.40;;;;;;;-2.16;90.16;95200.83;109066;1273;22595;-84
2024/01/16 05:45:55;;;;;;;2.60;1.70;;;;;;;-2.12;90.01;95202.66;109118;1267;22572;-84
2024/01/16 05:48:27;;;;;;;2.80;1.70;;;;;;;-2.04;89.76;95205.75;109115;1267;22534;-84
2024/01/16 05:51:02;;;;;;;3.80;1.80;;;;;;;-1.99;89.23;95213.64;109115;1274;22600;-84
2024/01/16 05:53:34;;;;;;;2.90;1.50;;;;;;;-1.96;88.93;95217.48;109047;1268;22522;-84
2024/01/16 05:56:05;;;;;;;3.00;1.90;;;;;;;-1.95;88.55;95221.09;109138;1274;22656;-84
2024/01/16 05:58:38;;;;;;;1.50;1.20;;;;;;;-1.96;88.31;95226.63;109095;1273;25421;-84
2024/01/16 06:01:14;;;;;;;2.90;1.70;;;;;;;-1.98;87.62;95219.77;109091;1267;22528;-84
2024/01/16 06:03:48;;;;;;;3.00;1.80;;;;;;;-1.99;87.26;95224.27;109082;1267;23377;-84
2024/01/16 06:06:19;;;;;;;3.20;1.40;;;;;;;-2.04;87.07;95227.47;109092;1273;24381;-84
2024/01/16 06:08:56;;;;;;;2.50;1.80;;;;;;;-2.05;86.88;95235.70;109151;1273;22612;-85
2024/01/16 06:11:34;;;;;;;3.90;2.00;;;;;;;-2.03;86.37;95237.52;109026;1273;22552;-84
2024/01/16 06:14:21;;;;;;;2.00;1.80;;;;;;;-2.04;86.12;95237.61;109033;1250;22547;-84
2024/01/16 06:16:55;;;;;;;3.40;1.80;;;;;;;-2.07;86.04;95247.83;109046;1273;22554;-84
2024/01/16 06:19:28;;;;;;;2.20;1.20;;;;;;;-2.05;85.91;95248.86;109047;1270;23595;-84
2024/01/16 06:21:59;;;;;;;2.40;1.10;;;;;;;-2.00;85.44;95259.84;109054;1273;23284;-84
2024/01/16 06:24:36;;;;;;;3.80;1.40;;;;;;;-1.98;85.48;95261.05;109011;1267;22934;-84
2024/01/16 06:27:08;;;;;;;1.90;1.50;;;;;;;-1.99;85.40;95259.39;109079;1273;22511;-84
2024/01/16 06:29:39;;;;;;;2.70;1.90;;;;;;;-1.98;85.34;95263.00;109029;1273;25815;-84
2024/01/16 06:32:14;;;;;;;2.50;1.50;;;;;;;-1.98;85.65;95265.64;109063;1270;22810;-84
2024/01/16 06:34:52;;;;;;;2.60;1.60;;;;;;;-1.99;85.67;95269.66;109022;1253;22545;-84
2024/01/16 06:37:23;;;;;;;2.10;1.60;;;;;;;-2.02;85.68;95266.77;109082;1270;22472;-84
2024/01/16 06:39:56;;;;;;;2.80;2.10;;;;;;;-2.03;85.88;95271.16;109012;1264;24402;-83
2024/01/16 06:42:30;;;;;;;3.70;2.10;;;;;;;-2.05;85.87;95275.50;108624;1273;24152;-81
2024/01/16 06:45:03;;;;;;;2.80;1.60;;;;;;;-2.08;86.11;95274.86;108619;1274;22546;-83
2024/01/16 06:47:34;;;;;;;3.40;1.90;;;;;;;-2.12;86.43;95281.16;108646;1274;25365;-82
2024/01/16 06:50:07;;;;;;;4.30;2.10;;;;;;;-2.14;86.35;95292.61;108559;1267;24337;-82
2024/01/16 06:52:39;;;;;;;3.20;2.00;;;;;;;-2.15;86.92;95295.75;108668;1267;24470;-83
2024/01/16 06:55:10;;;;;;;3.40;2.10;;;;;;;-2.15;86.84;95300.73;109103;1274;22633;-83
2024/01/16 06:57:41;;;;;;;3.00;2.60;;;;;;;-2.14;87.36;95304.96;108722;1274;24225;-83
2024/01/16 07:00:15;;;;;;;3.10;1.90;;;;;;;-2.15;87.44;95314.40;108633;1270;25239;-83
2024/01/16 07:02:46;;;;;;;4.20;2.30;;;;;;;-2.15;87.67;95311.89;108761;1274;23986;-83
2024/01/16 07:05:17;;;;;;;4.60;2.10;;;;;;;-2.17;88.10;95311.92;108666;1269;22520;-83
2024/01/16 07:07:47;;;;;;;5.60;2.60;;;;;;;-2.18;88.46;95319.11;108663;1270;22531;-82
2024/01/16 07:10:21;;;;;;;5.40;3.00;;;;;;;-2.22;88.89;95326.35;108476;1272;22693;-82
2024/01/16 07:12:56;;;;;;;5.20;2.60;;;;;;;-2.29;89.09;95324.66;108617;1270;22531;-83
2024/01/16 07:15:27;;;;;;;4.30;2.30;;;;;;;-2.31;89.19;95326.34;108605;1274;22522;-82
2024/01/16 07:17:58;;;;;;;6.30;2.70;;;;;;;-2.33;89.40;95331.90;108641;1273;22547;-82
2024/01/16 07:20:29;;;;;;;4.60;2.80;;;;;;;-2.36;89.55;95335.20;108655;1270;22517;-82
2024/01/16 07:23:00;;;;;;;3.80;2.40;;;;;;;-2.36;89.86;95340.91;108694;1270;22610;-83
2024/01/16 07:25:32;;;;;;;4.00;2.50;;;;;;;-2.36;89.86;95347.30;108640;1273;22547;-84
2024/01/16 07:28:04;;;;;;;3.30;2.40;;;;;;;-2.39;90.23;95347.34;108683;1272;22558;-84
2024/01/16 07:30:36;;;;;;;2.10;1.80;;;;;;;-2.38;90.54;95351.33;109091;1267;22521;-83
2024/01/16 07:33:07;;;;;;;3.80;1.80;;;;;;;-2.40;90.94;95361.39;109078;1267;22634;-83
2024/01/16 07:35:40;;;;;;;4.00;2.40;;;;;;;-2.39;91.51;95363.23;109047;1273;22634;-83
2024/01/16 07:38:11;;;;;;;2.60;1.90;;;;;;;-2.35;91.79;95369.23;109102;1273;25410;-82
2024/01/16 07:40:42;;;;;;;4.10;1.90;;;;;;;-2.30;91.93;95375.20;108810;1267;22554;-83
2024/01/16 07:43:13;;;;;;;3.30;1.70;;;;;;;-2.24;92.59;95375.21;108792;1274;22969;-83
2024/01/16 07:45:48;;;;;;;4.00;2.40;;;;;;;-2.20;92.92;95374.58;108755;1267;22535;-83
2024/01/16 07:48:19;;;;;;;2.90;1.60;;;;;;;-2.18;92.54;95387.03;109080;1272;22568;-83
2024/01/16 07:50:50;;;;;;;4.00;1.60;;;;;;;-2.17;92.02;95382.79;108634;1267;22549;-83
2024/01/16 07:53:23;;;;;;;3.60;2.00;;;;;;;-2.17;91.97;95387.30;108679;1270;22625;-83
2024/01/16 07:56:09;;;;;;;3.70;1.60;;;;;;;-2.16;91.77;95398.07;108751;1274;22552;-82
2024/01/16 07:58:41;;;;;;;1.70;1.10;;;;;;;-2.16;91.89;95401.98;108678;1267;22654;-81
2024/01/16 08:01:18;;;;;;;4.80;2.60;;;;;;;-2.16;92.16;95406.73;108569;1263;22519;-81
2024/01/16 08:03:51;;;;;;;4.20;2.10;;;;;;;-2.16;92.07;95397.66;108660;1266;22681;-81
2024/01/16 08:06:25;;;;;;;2.60;1.80;;;;;;;-2.14;92.24;95394.94;108553;1266;22555;-81
2024/01/16 08:08:56;;;;;;;3.70;2.40;;;;;;;-2.10;92.23;95396.44;108495;1266;24813;-81
2024/01/16 08:11:27;;;;;;;2.80;1.40;;;;;;;-1.97;92.27;95393.43;108656;1273;23094;-82
2024/01/16 08:13:58;;;;;;;4.40;2.30;;;;;;;-1.75;92.33;95394.13;108651;1267;22601;-82
2024/01/16 08:16:28;;;;;;;1.50;1.30;;;;;;;-1.28;92.15;95389.31;108685;1273;22566;-82
2024/01/16 08:18:59;;;;;;;2.20;1.50;;;;;;;-1.24;90.83;95391.38;108917;1267;22556;-81
2024/01/16 08:21:30;;;;;;;1.80;1.50;;;;;;;-1.36;90.03;95393.29;109007;1273;24244;-82
2024/01/16 08:24:02;;;;;;;2.60;1.60;;;;;;;-1.49;89.15;95393.63;108979;1273;22534;-81
2024/01/16 08:26:33;;;;;;;2.80;2.00;;;;;;;-1.58;88.63;95398.70;109012;1270;22531;-81
2024/01/16 08:29:05;;;;;;;2.80;1.90;;;;;;;-1.64;88.10;95403.86;108955;1268;22544;-80
2024/01/16 08:31:35;;;;;;;5.30;2.00;;;;;;;-1.61;88.00;95408.42;108679;1273;22546;-81
2024/01/16 08:34:06;;;;;;;2.60;1.60;;;;;;;-1.53;87.21;95416.19;108562;1273;22551;-81
2024/01/16 08:36:38;;;;;;;3.60;1.90;;;;;;;-1.47;85.93;95421.27;108671;1267;22528;-81
2024/01/16 08:39:16;;;;;;;4.00;1.80;;;;;;;-1.43;85.67;95428.81;108658;1267;22665;-81
2024/01/16 08:41:51;;;;;;;3.80;1.80;;;;;;;-1.46;84.88;95428.04;108627;1274;22533;-82
2024/01/16 08:44:27;;;;;;;3.50;2.00;;;;;;;-1.54;84.42;95436.11;108664;1269;22532;-81
2024/01/16 08:47:04;;;;;;;2.60;1.30;;;;;;;-1.59;84.25;95436.32;108729;1274;22553;-81
2024/01/16 08:49:38;;;;;;;4.10;2.10;;;;;;;-1.64;83.22;95443.20;108638;1267;22524;-81
2024/01/16 08:52:09;;;;;;;3.10;1.50;;;;;;;-1.64;83.55;95455.46;108691;1270;22564;-81
2024/01/16 08:54:42;;;;;;;7.30;1.90;;;;;;;-1.63;83.21;95458.48;108644;1274;22543;-81
2024/01/16 08:57:13;;;;;;;1.80;1.30;;;;;;;-1.62;82.84;95455.08;108546;1267;22524;-79
2024/01/16 08:59:45;;;;;;;3.40;1.90;;;;;;;-1.60;81.48;95456.04;108652;1267;22538;-81
2024/01/16 09:02:17;;;;;;;4.50;2.00;;;;;;;-1.50;81.30;95465.71;108645;1266;22634;-80
2024/01/16 09:04:52;;;;;;;5.40;2.10;;;;;;;-1.39;80.51;95472.45;108671;1267;22538;-79
2024/01/16 09:07:27;;;;;;;3.70;1.50;;;;;;;-1.31;79.54;95468.76;108619;1270;23320;-80
2024/01/16 09:10:02;;;;;;;3.70;1.80;;;;;;;-1.21;80.11;95478.11;108707;1273;22568;-79
2024/01/16 09:12:37;;;;;;;3.70;1.80;;;;;;;-1.11;79.20;95477.00;108681;1273;23317;-80
2024/01/16 09:15:19;;;;;;;4.60;1.70;;;;;;;-1.10;78.88;95480.98;108689;1273;22550;-80
2024/01/16 09:17:50;;;;;;;3.60;1.30;;;;;;;-0.99;78.33;95483.05;108692;1266;22645;-80
2024/01/16 09:20:21;;;;;;;2.80;1.50;;;;;;;-0.98;77.78;95489.67;108559;1273;22544;-80
2024/01/16 09:22:52;;;;;;;3.50;1.70;;;;;;;-1.05;76.56;95487.77;108586;1274;23064;-80
2024/01/16 09:25:24;;;;;;;4.00;1.80;;;;;;;-1.09;75.36;95485.77;108564;1270;23707;-80
2024/01/16 09:27:55;;;;;;;1.30;1.20;;;;;;;-1.08;74.47;95482.67;109049;1267;22531;-80
2024/01/16 09:30:26;;;;;;;3.80;1.30;;;;;;;-1.11;74.61;95484.13;108646;1273;22524;-81
2024/01/16 09:33:03;;;;;;;2.20;0.90;;;;;;;-1.09;74.66;95488.84;108660;1267;22531;-80
2024/01/16 09:35:36;;;;;;;5.50;1.50;;;;;;;-0.98;74.43;95484.93;108660;1274;22534;-80
2024/01/16 09:38:10;;;;;;;2.30;1.50;;;;;;;-0.91;72.88;95479.60;108665;1267;22566;-80
2024/01/16 09:40:41;;;;;;;5.20;1.30;;;;;;;-0.92;73.52;95495.71;108618;1273;24257;-80
2024/01/16 09:43:14;;;;;;;3.40;1.10;;;;;;;-0.95;72.81;95492.06;108616;1274;22555;-80
2024/01/16 09:45:48;;;;;;;4.60;2.00;;;;;;;-0.96;73.43;95497.55;108716;1274;25322;-79
2024/01/16 09:48:28;;;;;;;1.40;0.80;;;;;;;-0.93;73.27;95502.50;108683;1268;22534;-81
2024/01/16 09:51:02;;;;;;;3.70;0.90;;;;;;;-0.84;72.83;95492.31;108776;1267;22543;-80
2024/01/16 09:53:34;;;;;;;3.20;1.70;;;;;;;-0.88;72.74;95498.94;108659;1273;22963;-81
2024/01/16 09:56:10;;;;;;;4.50;1.60;;;;;;;-0.76;73.66;95503.21;108702;1273;25416;-83
2024/01/16 09:58:44;;;;;;;3.40;1.40;;;;;;;-0.68;73.47;95504.16;108649;1270;22545;-83
2024/01/16 10:01:21;;;;;;;3.50;1.70;;;;;;;-0.78;72.31;95503.90;108739;1273;22521;-83
2024/01/16 10:03:58;;;;;;;5.10;2.00;;;;;;;-0.93;71.16;95492.88;108669;1273;22539;-82
2024/01/16 10:06:35;;;;;;;3.90;1.30;;;;;;;-1.02;71.29;95512.64;108669;1273;24478;-83
2024/01/16 10:09:08;;;;;;;3.00;1.50;;;;;;;-1.07;71.49;95510.67;108792;1271;22527;-82
2024/01/16 10:11:41;;;;;;;4.10;1.20;;;;;;;-1.08;71.65;95509.71;108581;1266;22588;-81
2024/01/16 10:14:14;;;;;;;2.90;1.20;;;;;;;-1.06;71.55;95510.48;108524;1273;22582;-82
2024/01/16 10:17:05;;;;;;;3.90;1.90;;;;;;;-1.11;71.74;95516.53;108603;1266;22571;-82
2024/01/16 10:19:48;;;;;;;2.00;1.00;;;;;;;-1.14;71.92;95521.55;108697;1266;22520;-82
2024/01/16 10:22:24;;;;;;;1.00;0.80;;;;;;;-1.15;72.10;95522.88;108495;1266;22538;-83
2024/01/16 10:25:07;;;;;;;2.40;1.10;;;;;;;-1.11;72.33;95515.48;108546;1270;22527;-81
2024/01/16 10:27:46;;;;;;;2.70;1.40;;;;;;;-0.97;72.74;95530.00;108618;1266;22523;-82
2024/01/16 10:30:22;;;;;;;3.10;1.50;;;;;;;-0.78;73.48;95524.83;108658;1273;25412;-81
2024/01/16 10:32:57;;;;;;;4.10;1.40;;;;;;;-0.69;73.36;95529.95;108659;1262;23368;-81
2024/01/16 10:35:30;;;;;;;0.90;0.80;;;;;;;-0.64;73.28;95526.13;108704;1273;26219;-82
2024/01/16 10:38:03;;;;;;;4.00;1.20;;;;;;;-0.57;73.11;95527.54;108657;1266;22539;-81
2024/01/16 10:40:35;;;;;;;3.70;1.70;;;;;;;-0.55;72.74;95528.10;108647;1266;23210;-81
2024/01/16 10:43:09;;;;;;;1.60;1.30;;;;;;;-0.48;72.64;95529.41;108661;1273;22527;-82
2024/01/16 10:45:42;;;;;;;0.90;0.80;;;;;;;-0.43;72.07;95533.30;108698;1260;24436;-81
2024/01/16 10:48:15;;;;;;;2.60;1.60;;;;;;;-0.44;72.08;95542.34;108638;1273;25397;-81
2024/01/16 10:50:52;;;;;;;2.50;1.40;;;;;;;-0.47;72.45;95544.46;108694;1269;22767;-82
2024/01/16 10:53:26;;;;;;;2.30;1.10;;;;;;;-0.47;72.80;95546.91;108759;1273;22643;-84
2024/01/16 10:56:00;;;;;;;2.90;1.40;;;;;;;-0.44;73.26;95547.55;108776;1274;22567;-82
2024/01/16 10:58:33;;;;;;;4.20;1.20;;;;;;;-0.39;73.41;95540.67;108806;1273;22535;-83
2024/01/16 11:01:06;;;;;;;3.10;1.80;;;;;;;-0.39;73.47;95541.28;108736;1274;22521;-83
2024/01/16 11:03:41;;;;;;;2.50;1.30;;;;;;;-0.40;73.02;95548.23;108772;1273;22584;-83
2024/01/16 11:06:16;;;;;;;1.70;0.90;;;;;;;-0.51;71.81;95536.09;108711;1274;25287;-82
2024/01/16 11:08:48;;;;;;;2.70;1.00;;;;;;;-0.64;70.73;95542.27;108623;1273;24282;-83
2024/01/16 11:11:19;;;;;;;3.20;2.00;;;;;;;-0.71;70.60;95540.61;108662;1267;25400;-83
2024/01/16 11:13:51;;;;;;;2.30;1.00;;;;;;;-0.71;71.32;95544.46;108704;1273;23041;-83
2024/01/16 11:16:24;;;;;;;4.20;1.60;;;;;;;-0.73;70.98;95536.63;108781;1274;22527;-82
2024/01/16 11:18:55;;;;;;;1.30;0.90;;;;;;;-0.65;70.85;95533.44;108730;1273;22531;-82
2024/01/16 11:21:27;;;;;;;4.50;1.00;;;;;;;-0.56;70.69;95531.84;108711;1269;22576;-83
2024/01/16 11:23:58;;;;;;;4.20;1.10;;;;;;;-0.64;69.57;95529.98;108767;1273;24212;-83
2024/01/16 11:26:32;;;;;;;1.90;1.10;;;;;;;-0.69;68.93;95535.58;108761;1256;24240;-82
2024/01/16 11:29:23;;;;;;;1.80;1.10;;;;;;;-0.59;69.44;95539.42;108435;1267;22543;-83
2024/01/16 11:31:55;;;;;;;3.10;1.50;;;;;;;-0.64;68.52;95538.94;108587;1267;25107;-83
2024/01/16 11:34:57;;;;;;;0.80;0.80;;;;;;;-0.69;67.76;95534.64;108530;1266;26455;-83
2024/01/16 11:37:31;;;;;;;2.10;1.10;;;;;;;-0.64;68.05;95537.79;108612;1273;22523;-82
2024/01/16 11:40:28;;;;;;;1.70;1.00;;;;;;;-0.48;67.27;95542.52;109355;1274;22531;-83
2024/01/16 11:42:59;;;;;;;1.70;1.00;;;;;;;-0.39;65.77;95543.27;108654;1269;22853;-82
2024/01/16 11:45:53;;;;;;;2.50;1.60;;;;;;;-0.51;65.69;95551.44;108642;1273;22527;-83
2024/01/16 11:48:25;;;;;;;3.30;1.30;;;;;;;-0.59;65.20;95554.41;108686;1266;22514;-83
2024/01/16 11:50:56;;;;;;;2.20;1.40;;;;;;;-0.65;65.17;95564.47;108651;1273;22545;-83
2024/01/16 11:53:41;;;;;;;5.10;1.90;;;;;;;-0.69;64.83;95554.16;108677;1273;22564;-83
2024/01/16 11:56:43;;;;;;;4.00;2.50;;;;;;;-0.62;64.99;95564.77;108702;1273;22541;-83